Time;durP1;ratioP1;P1;durP2;ratioP2;P2;SDS_P1;SDS_P2;PMS_P1;PMS_P2;Temp;Humidity;BMP_temperature;BMP_pressure;BME280_temperature;BME280_humidity;BME280_pressure;Samples;Min_cycle;Max_cycle;Signal;HPM_P1;HPM_P2
2023/08/21 00:02:30;;;;;;;2.35;1.42;;;;;;;19.68;63.38;101087.97;10123376;29;20097;-74
2023/08/21 00:07:33;;;;;;;5.93;1.58;;;;;;;19.62;63.98;101080.47;10124643;28;20060;-75
2023/08/21 00:12:36;;;;;;;4.10;1.70;;;;;;;19.64;63.86;101075.72;10123920;29;20795;-75
2023/08/21 00:17:40;;;;;;;1.45;1.15;;;;;;;19.59;64.23;101078.94;10123654;29;20059;-75
2023/08/21 00:22:43;;;;;;;6.75;1.70;;;;;;;19.60;64.52;101077.06;10120374;29;21199;-74
2023/08/21 00:27:46;;;;;;;3.60;1.95;;;;;;;19.57;64.67;101080.13;10124331;29;20542;-75
2023/08/21 00:32:50;;;;;;;2.00;1.60;;;;;;;19.15;64.85;101083.69;10137511;28;20052;-74
2023/08/21 00:37:55;;;;;;;5.88;1.88;;;;;;;18.92;66.29;101069.78;10144858;28;20048;-75
2023/08/21 00:42:58;;;;;;;3.92;1.67;;;;;;;19.10;66.04;101076.00;10149050;29;20187;-75
2023/08/21 00:48:04;;;;;;;4.60;1.90;;;;;;;19.10;65.71;101070.56;10124438;29;20040;-75
2023/08/21 00:53:07;;;;;;;5.20;1.55;;;;;;;19.02;66.00;101068.66;10145913;29;20067;-75
2023/08/21 00:58:11;;;;;;;3.70;1.70;;;;;;;18.98;66.75;101072.72;10134890;28;20605;-75
2023/08/21 01:03:16;;;;;;;7.03;2.47;;;;;;;18.98;66.58;101078.19;10136943;28;20048;-75
2023/08/21 01:08:26;;;;;;;3.38;2.03;;;;;;;18.84;67.31;101084.22;10137531;29;20052;-75
2023/08/21 01:13:42;;;;;;;3.60;2.10;;;;;;;18.82;67.19;101083.53;10138173;29;20543;-74
2023/08/21 01:18:49;;;;;;;4.70;1.92;;;;;;;18.88;67.04;101082.03;10124427;29;20052;-75
2023/08/21 01:23:53;;;;;;;5.13;1.92;;;;;;;18.91;67.46;101104.31;10132028;29;20541;-75
2023/08/21 01:28:56;;;;;;;6.43;2.00;;;;;;;18.67;67.62;101090.53;10132658;28;20056;-74
2023/08/21 01:34:03;;;;;;;8.18;2.03;;;;;;;18.29;68.59;101098.97;10124622;28;20720;-75
2023/08/21 01:39:08;;;;;;;4.65;1.90;;;;;;;18.23;69.83;101112.31;10124369;29;20061;-75
2023/08/21 01:44:11;;;;;;;5.95;2.58;;;;;;;17.53;72.85;101110.25;10130734;29;20051;-74
2023/08/21 01:49:13;;;;;;;4.28;2.45;;;;;;;17.69;72.53;101107.72;10128857;29;20048;-75
2023/08/21 01:54:18;;;;;;;6.50;2.80;;;;;;;17.60;74.10;101107.75;10133040;28;20435;-74
2023/08/21 01:59:21;;;;;;;3.25;2.40;;;;;;;18.14;72.57;101098.66;10135458;28;20072;-75
2023/08/21 02:04:24;;;;;;;5.07;2.10;;;;;;;18.40;71.63;101110.59;10129644;29;20065;-75
2023/08/21 02:09:28;;;;;;;3.08;2.17;;;;;;;18.62;70.51;101101.91;10136712;29;20051;-75
2023/08/21 02:14:31;;;;;;;5.82;2.30;;;;;;;18.70;70.18;101088.34;10132535;29;20052;-75
2023/08/21 02:19:34;;;;;;;3.50;1.75;;;;;;;18.77;69.75;101094.88;10127659;29;20056;-74
2023/08/21 02:24:38;;;;;;;4.63;1.95;;;;;;;18.94;67.52;101084.94;10133449;28;20048;-75
2023/08/21 02:29:41;;;;;;;3.72;2.08;;;;;;;18.93;67.61;101085.13;10130634;29;20059;-74
2023/08/21 02:34:44;;;;;;;7.40;2.42;;;;;;;18.73;67.54;101087.16;10127609;29;20063;-74
2023/08/21 02:39:49;;;;;;;4.88;2.10;;;;;;;18.76;67.49;101084.16;10128557;29;20062;-75
2023/08/21 02:44:52;;;;;;;5.07;2.10;;;;;;;18.80;67.20;101077.38;10123827;29;20060;-74
2023/08/21 02:49:55;;;;;;;7.75;2.60;;;;;;;18.92;66.80;101088.84;10125153;28;21197;-75
2023/08/21 02:54:59;;;;;;;4.90;2.30;;;;;;;18.96;65.59;101084.78;10122775;29;20504;-75
2023/08/21 03:00:02;;;;;;;5.05;2.05;;;;;;;18.78;66.36;101084.84;10121780;29;20691;-75
2023/08/21 03:05:06;;;;;;;5.15;2.30;;;;;;;18.95;66.24;101081.22;10123688;29;20134;-74
2023/08/21 03:10:12;;;;;;;8.85;3.53;;;;;;;18.93;66.51;101087.84;10126955;29;21711;-74
2023/08/21 03:15:15;;;;;;;4.50;2.08;;;;;;;18.72;67.10;101096.38;10130968;28;20096;-74
2023/08/21 03:20:19;;;;;;;5.45;2.17;;;;;;;18.23;68.37;101110.44;10126152;28;20409;-76
2023/08/21 03:25:23;;;;;;;2.83;1.98;;;;;;;18.10;69.02;101094.56;10125093;29;20051;-76
2023/08/21 03:30:26;;;;;;;4.72;1.75;;;;;;;18.36;68.46;101102.75;10126598;29;20055;-75
2023/08/21 03:35:30;;;;;;;4.50;1.60;;;;;;;18.57;68.01;101090.66;10130919;29;20138;-76
2023/08/21 03:40:34;;;;;;;5.93;2.13;;;;;;;18.39;68.07;101089.84;10122596;29;20146;-76
2023/08/21 03:45:37;;;;;;;4.78;2.30;;;;;;;18.28;68.70;101090.94;10125983;28;20129;-75
2023/08/21 03:50:42;;;;;;;8.20;2.72;;;;;;;18.17;69.96;101089.31;10117707;29;20075;-75
2023/08/21 03:55:46;;;;;;;5.57;2.92;;;;;;;18.32;70.07;101087.75;10122973;29;20055;-73
2023/08/21 04:00:49;;;;;;;4.93;2.20;;;;;;;18.50;69.41;101093.16;10129653;29;20415;-74
2023/08/21 04:05:56;;;;;;;6.90;2.58;;;;;;;18.56;69.27;101084.34;10123838;29;20473;-74
2023/08/21 04:11:00;;;;;;;5.85;2.80;;;;;;;18.48;69.29;101081.56;10127635;28;20048;-73
2023/08/21 04:16:04;;;;;;;5.10;2.55;;;;;;;18.43;69.28;101089.38;10127536;29;20044;-74
2023/08/21 04:21:07;;;;;;;4.03;2.58;;;;;;;18.52;69.34;101096.56;10122601;29;21286;-74
2023/08/21 04:26:11;;;;;;;4.32;2.47;;;;;;;18.62;69.43;101096.44;10122770;29;20526;-74
2023/08/21 04:31:14;;;;;;;7.63;2.92;;;;;;;18.21;69.92;101112.50;10121650;29;20063;-74
2023/08/21 04:36:18;;;;;;;6.93;2.85;;;;;;;17.46;74.12;101112.69;10121055;29;20049;-74
2023/08/21 04:41:25;;;;;;;2.78;2.03;;;;;;;17.88;72.92;101112.16;10120692;29;20052;-74
2023/08/21 04:46:29;;;;;;;3.55;2.10;;;;;;;17.71;72.85;101121.13;10119028;29;20056;-76
2023/08/21 04:51:32;;;;;;;5.85;2.30;;;;;;;17.63;73.64;101130.03;10123168;29;20063;-74
2023/08/21 04:56:39;;;;;;;5.15;2.22;;;;;;;17.70;73.59;101122.16;10121938;29;20040;-74
2023/08/21 05:01:44;;;;;;;4.28;1.98;;;;;;;17.95;72.80;101125.13;10118594;29;20728;-74
2023/08/21 05:06:48;;;;;;;9.07;2.53;;;;;;;17.95;71.90;101125.13;10117961;28;20055;-74
2023/08/21 05:11:53;;;;;;;3.35;2.08;;;;;;;18.21;71.72;101123.38;10119088;28;20051;-74
2023/08/21 05:16:56;;;;;;;4.70;2.08;;;;;;;18.83;69.78;101125.22;10123270;29;20051;-75
2023/08/21 05:21:59;;;;;;;5.50;2.35;;;;;;;19.18;68.68;101113.31;10127395;29;20059;-75
2023/08/21 05:27:06;;;;;;;3.47;2.00;;;;;;;19.54;67.89;101127.59;10123727;29;20052;-75
2023/08/21 05:32:09;;;;;;;4.85;2.42;;;;;;;19.24;68.99;101120.84;10125281;29;20052;-75
2023/08/21 05:37:12;;;;;;;6.38;2.35;;;;;;;19.33;68.01;101119.00;10122661;28;20059;-75
2023/08/21 05:42:16;;;;;;;6.15;2.00;;;;;;;19.75;67.27;101135.34;10127731;29;20044;-75
2023/08/21 05:47:19;;;;;;;5.75;2.38;;;;;;;20.16;66.16;101134.56;10127019;29;20228;-75
2023/08/21 05:52:23;;;;;;;6.20;2.50;;;;;;;20.02;65.73;101136.06;10122879;29;20044;-75
2023/08/21 05:57:27;;;;;;;5.25;2.38;;;;;;;20.28;65.46;101130.47;10120897;29;21500;-74
2023/08/21 06:02:30;;;;;;;5.43;2.20;;;;;;;20.47;64.63;101130.16;10125976;28;20112;-74
2023/08/21 06:07:34;;;;;;;3.67;1.90;;;;;;;20.30;65.76;101139.34;10126203;29;20420;-74
2023/08/21 06:12:38;;;;;;;9.05;3.05;;;;;;;19.91;66.15;101137.25;10130912;29;20044;-77
2023/08/21 06:17:43;;;;;;;6.82;2.92;;;;;;;19.82;66.67;101143.72;10136796;29;20049;-76
2023/08/21 06:22:45;;;;;;;4.45;3.00;;;;;;;19.78;66.66;101154.09;10145594;28;20051;-77
2023/08/21 06:27:50;;;;;;;9.77;2.95;;;;;;;19.90;66.20;101151.91;10135847;29;20138;-77
2023/08/21 06:33:01;;;;;;;;;;;;;;;20.20;66.07;101150.41;10146367;28;20086;-77
2023/08/21 06:38:04;;;;;;;7.57;3.25;;;;;;;20.63;63.39;101161.22;10135883;28;19934;-77
2023/08/21 06:43:09;;;;;;;4.53;2.97;;;;;;;20.90;63.00;101168.16;10151532;28;20060;-76
2023/08/21 06:48:15;;;;;;;5.10;2.40;;;;;;;20.81;64.36;101169.19;10142140;28;20132;-77
2023/08/21 06:53:18;;;;;;;4.53;2.42;;;;;;;20.80;64.17;101162.88;10141337;28;20055;-77
2023/08/21 06:58:22;;;;;;;4.95;2.45;;;;;;;20.53;65.08;101158.66;10131249;29;21314;-76
2023/08/21 07:03:25;;;;;;;6.40;2.50;;;;;;;21.19;64.79;101159.41;10133985;28;20554;-77
2023/08/21 07:08:28;;;;;;;8.82;2.33;;;;;;;21.93;62.80;101153.63;10131682;29;20048;-77
2023/08/21 07:13:32;;;;;;;3.42;2.25;;;;;;;22.49;58.68;101157.88;10126423;29;20987;-76
2023/08/21 07:18:36;;;;;;;6.78;1.88;;;;;;;22.83;58.17;101155.69;10126078;29;20055;-77
2023/08/21 07:23:39;;;;;;;6.88;2.42;;;;;;;23.48;55.92;101148.59;10142526;28;20056;-77
2023/08/21 07:28:43;;;;;;;6.25;1.77;;;;;;;23.91;53.81;101159.72;10135394;28;20055;-77
2023/08/21 07:33:46;;;;;;;7.47;1.70;;;;;;;24.55;51.49;101154.28;10132948;28;20051;-77
2023/08/21 07:38:50;;;;;;;8.45;1.83;;;;;;;24.24;51.65;101160.91;10144638;28;20689;-77
2023/08/21 07:43:54;;;;;;;5.70;1.58;;;;;;;24.21;51.67;101161.31;10134471;28;20059;-76
2023/08/21 07:48:57;;;;;;;4.30;1.80;;;;;;;24.31;53.60;101156.34;10133971;29;20656;-76
2023/08/21 07:54:00;;;;;;;4.60;1.60;;;;;;;24.40;51.01;101159.00;10148825;29;20044;-76
2023/08/21 07:59:04;;;;;;;4.25;1.55;;;;;;;24.59;51.48;101163.81;10125603;28;21274;-76
2023/08/21 08:04:07;;;;;;;5.18;1.40;;;;;;;24.96;50.48;101162.63;10136649;28;20048;-75
2023/08/21 08:09:10;;;;;;;4.53;1.50;;;;;;;24.92;48.66;101165.97;10135068;28;20068;-76
2023/08/21 08:14:14;;;;;;;6.03;1.40;;;;;;;25.21;49.57;101181.44;10137458;28;20055;-75
2023/08/21 08:19:17;;;;;;;4.72;1.35;;;;;;;25.69;48.28;101181.47;10144786;29;20058;-76
2023/08/21 08:24:20;;;;;;;8.43;1.85;;;;;;;25.90;46.59;101165.91;10141630;28;20052;-79
2023/08/21 08:29:24;;;;;;;3.47;1.30;;;;;;;25.87;45.67;101167.16;10131716;29;20056;-78
2023/08/21 08:34:27;;;;;;;8.20;1.42;;;;;;;25.65;46.95;101160.94;10135793;29;20076;-78
2023/08/21 08:39:30;;;;;;;6.75;1.33;;;;;;;26.20;45.62;101169.16;10135959;29;20555;-78
2023/08/21 08:44:36;;;;;;;3.67;1.48;;;;;;;26.40;45.99;101150.75;10131522;28;20111;-77
2023/08/21 08:49:39;;;;;;;4.10;1.20;;;;;;;26.78;45.03;101152.03;10139991;29;20429;-77
2023/08/21 08:54:42;;;;;;;3.63;1.10;;;;;;;27.32;44.75;101159.19;10135657;28;20067;-76
2023/08/21 08:59:46;;;;;;;4.13;1.42;;;;;;;27.99;42.47;101148.72;10145392;28;20087;-76
2023/08/21 09:04:49;;;;;;;4.95;1.20;;;;;;;28.11;41.88;101148.84;10145997;28;20416;-76
2023/08/21 09:09:52;;;;;;;4.90;1.17;;;;;;;27.87;42.40;101147.72;10131683;29;20060;-76
2023/08/21 09:14:57;;;;;;;2.60;1.45;;;;;;;27.41;43.46;101155.13;10132326;29;20063;-76
2023/08/21 09:20:04;;;;;;;5.20;1.15;;;;;;;27.28;41.90;101144.94;10137738;28;20062;-76
2023/08/21 09:25:10;;;;;;;2.38;1.17;;;;;;;27.15;44.38;101142.22;10137495;28;20066;-77
2023/08/21 09:30:16;;;;;;;5.63;1.58;;;;;;;27.72;43.45;101135.03;10140887;28;20056;-77
2023/08/21 09:35:19;;;;;;;3.83;1.40;;;;;;;28.23;42.46;101127.75;10145519;28;20048;-76
2023/08/21 09:40:22;;;;;;;4.47;1.17;;;;;;;28.51;41.71;101130.06;10134877;29;20067;-76
2023/08/21 09:45:29;;;;;;;4.20;1.40;;;;;;;29.50;40.66;101127.38;10132668;28;20238;-75
2023/08/21 09:50:32;;;;;;;5.68;1.40;;;;;;;29.46;40.75;101135.31;10132689;28;20052;-75
2023/08/21 09:55:36;;;;;;;4.47;1.35;;;;;;;29.34;41.40;101126.06;10138868;28;20475;-75
2023/08/21 10:00:41;;;;;;;3.33;0.90;;;;;;;28.63;40.30;101127.44;10133196;28;20443;-76
2023/08/21 10:05:44;;;;;;;4.35;0.93;;;;;;;27.84;41.48;101133.28;10133586;29;20780;-76
2023/08/21 10:10:47;;;;;;;2.53;1.23;;;;;;;27.92;41.95;101136.84;10137783;29;20059;-75
2023/08/21 10:15:52;;;;;;;5.65;1.23;;;;;;;28.43;41.51;101124.81;10131769;28;20057;-75
2023/08/21 10:20:55;;;;;;;3.47;1.23;;;;;;;29.33;39.87;101124.38;10129120;29;20058;-76
2023/08/21 10:25:58;;;;;;;4.80;1.52;;;;;;;28.36;39.27;101122.13;10134245;28;20059;-76
2023/08/21 10:31:30;;;;;;;6.93;1.25;;;;;;;28.83;41.73;101113.44;10133075;29;20068;-77
2023/08/21 10:37:09;;;;;;;3.88;1.15;;;;;;;30.02;39.16;101114.72;10131487;28;20731;-75
2023/08/21 10:42:14;;;;;;;3.97;1.20;;;;;;;30.43;37.44;101104.72;10135323;28;20083;-75
2023/08/21 10:47:20;;;;;;;4.43;1.15;;;;;;;28.56;39.26;101110.94;10123522;29;20127;-74
2023/08/21 10:52:25;;;;;;;5.43;0.95;;;;;;;28.87;41.46;101106.38;10117275;29;20070;-74
2023/08/21 10:57:29;;;;;;;2.22;1.00;;;;;;;29.03;39.30;101110.47;10123670;29;20059;-74
2023/08/21 11:02:34;;;;;;;5.53;1.52;;;;;;;29.62;39.11;101100.66;10133101;29;20561;-74
2023/08/21 11:07:41;;;;;;;2.30;1.00;;;;;;;30.14;37.41;101106.50;10127955;28;20044;-76
2023/08/21 11:12:51;;;;;;;4.85;1.52;;;;;;;30.63;37.07;101107.13;10129538;28;20198;-74
2023/08/21 11:17:58;;;;;;;4.22;1.08;;;;;;;31.51;37.42;101108.03;10129460;29;20119;-75
2023/08/21 11:23:06;;;;;;;3.95;1.00;;;;;;;31.41;35.95;101112.53;10129836;29;20048;-75
2023/08/21 11:28:09;;;;;;;4.50;1.13;;;;;;;30.84;37.73;101118.75;10130681;29;20048;-75
2023/08/21 11:33:14;;;;;;;3.45;1.17;;;;;;;31.38;37.16;101118.53;10121019;29;20055;-74
2023/08/21 11:38:19;;;;;;;4.55;1.27;;;;;;;32.28;35.83;101108.63;10131475;28;20511;-75
2023/08/21 11:43:22;;;;;;;3.63;1.10;;;;;;;33.13;35.24;101095.47;10117035;28;20528;-76
2023/08/21 11:48:26;;;;;;;6.00;1.50;;;;;;;33.46;33.95;101086.16;10127410;29;20158;-75
2023/08/21 11:53:36;;;;;;;6.00;0.90;;;;;;;33.65;33.23;101081.94;10129383;29;20052;-75
2023/08/21 11:58:40;;;;;;;3.08;1.10;;;;;;;34.24;32.45;101077.53;10123245;29;20055;-75
2023/08/21 12:03:44;;;;;;;3.05;1.75;;;;;;;34.13;31.38;101076.59;10120116;28;20052;-76
2023/08/21 12:08:48;;;;;;;2.05;0.90;;;;;;;34.12;31.76;101081.34;10129720;28;20531;-76
2023/08/21 12:13:51;;;;;;;3.42;1.13;;;;;;;33.58;31.50;101094.38;10128313;29;20079;-75
2023/08/21 12:18:57;;;;;;;2.33;0.98;;;;;;;31.32;35.02;101089.84;10125776;29;20108;-75
2023/08/21 12:24:00;;;;;;;4.63;1.20;;;;;;;32.17;34.66;101086.25;10124781;29;20057;-76
2023/08/21 12:29:03;;;;;;;3.58;1.23;;;;;;;32.85;33.96;101092.59;10135286;29;20517;-76
2023/08/21 12:34:07;;;;;;;1.67;1.23;;;;;;;32.91;33.50;101084.31;10122176;28;20052;-75
2023/08/21 12:39:10;;;;;;;7.60;1.35;;;;;;;33.80;33.67;101077.66;10130844;28;20445;-75
2023/08/21 12:44:13;;;;;;;3.90;1.20;;;;;;;33.10;32.77;101081.00;10121840;29;20075;-75
2023/08/21 12:49:17;;;;;;;4.03;1.05;;;;;;;33.93;32.78;101068.88;10120201;29;20095;-75
2023/08/21 12:54:20;;;;;;;3.47;1.30;;;;;;;32.66;32.28;101072.56;10118629;29;20053;-75
2023/08/21 12:59:23;;;;;;;3.38;1.13;;;;;;;31.07;36.24;101074.31;10121402;28;20428;-75
2023/08/21 13:04:27;;;;;;;6.95;1.30;;;;;;;32.25;35.47;101068.28;10117961;28;20056;-75
2023/08/21 13:09:30;;;;;;;4.55;1.13;;;;;;;33.45;33.29;101051.06;10124504;28;20044;-76
2023/08/21 13:14:33;;;;;;;6.05;1.00;;;;;;;34.36;32.23;101053.06;10122564;29;21955;-75
2023/08/21 13:19:37;;;;;;;5.25;1.50;;;;;;;33.84;32.44;101043.41;10117979;28;20053;-76
2023/08/21 13:24:40;;;;;;;4.85;1.30;;;;;;;33.55;33.26;101048.41;10119950;29;20052;-75
2023/08/21 13:29:42;;;;;;;3.72;1.08;;;;;;;33.75;33.34;101040.28;10122763;28;20763;-76
2023/08/21 13:34:47;;;;;;;7.60;1.50;;;;;;;34.19;32.49;101037.31;10124386;28;20048;-76
2023/08/21 13:39:49;;;;;;;4.13;1.13;;;;;;;33.26;33.48;101034.72;10129351;29;20473;-76
2023/08/21 13:44:52;;;;;;;3.03;1.00;;;;;;;33.27;32.92;101038.38;10137687;29;20424;-76
2023/08/21 13:49:57;;;;;;;2.72;1.23;;;;;;;31.64;36.09;101037.47;10131265;29;20729;-76
2023/08/21 13:55:00;;;;;;;1.65;0.70;;;;;;;32.44;33.31;101029.94;10132647;28;20079;-76
2023/08/21 14:00:07;;;;;;;8.23;1.48;;;;;;;33.14;32.53;101022.06;10138545;28;20047;-76
2023/08/21 14:05:11;;;;;;;1.52;0.90;;;;;;;32.99;33.11;101023.50;10135079;29;20465;-75
2023/08/21 14:10:15;;;;;;;5.45;1.15;;;;;;;33.32;31.89;101005.84;10130105;29;20051;-76
2023/08/21 14:15:18;;;;;;;3.28;1.00;;;;;;;33.40;31.20;101007.31;10127516;29;20048;-76
2023/08/21 14:20:22;;;;;;;3.17;1.13;;;;;;;33.12;32.03;101011.13;10116768;29;20448;-76
2023/08/21 14:25:25;;;;;;;2.58;0.68;;;;;;;33.13;31.58;101003.63;10122858;28;20589;-76
2023/08/21 14:30:28;;;;;;;2.17;0.80;;;;;;;33.18;30.85;100993.41;10125242;29;20052;-75
2023/08/21 14:35:32;;;;;;;2.08;0.80;;;;;;;33.24;30.88;100997.97;10131898;28;20048;-76
2023/08/21 14:40:35;;;;;;;20.48;1.85;;;;;;;33.48;30.71;100990.13;10135053;28;20060;-75
2023/08/21 14:45:38;;;;;;;2.15;0.88;;;;;;;33.71;30.83;100988.16;10130682;28;20055;-75
2023/08/21 14:50:42;;;;;;;1.25;0.70;;;;;;;32.83;31.22;100985.47;10133810;28;20146;-76
2023/08/21 14:55:45;;;;;;;2.05;0.70;;;;;;;32.36;31.76;100989.53;10132244;29;20051;-76
2023/08/21 15:00:48;;;;;;;1.65;0.80;;;;;;;31.18;33.72;100996.88;10124805;29;20464;-75
2023/08/21 15:05:55;;;;;;;2.85;1.00;;;;;;;30.37;35.55;101007.84;10115408;29;20047;-75
2023/08/21 15:10:58;;;;;;;3.25;0.80;;;;;;;29.84;34.93;101001.28;10119459;29;20059;-75
2023/08/21 15:16:00;;;;;;;2.92;1.15;;;;;;;29.47;36.71;101000.53;10122650;29;20409;-76
2023/08/21 15:21:05;;;;;;;4.47;1.02;;;;;;;29.00;36.65;100994.78;10122634;28;20196;-76
2023/08/21 15:26:08;;;;;;;1.77;0.85;;;;;;;28.48;36.67;100995.97;10121916;29;20063;-75
2023/08/21 15:31:11;;;;;;;5.25;1.55;;;;;;;28.38;38.37;100986.53;10131459;29;21659;-76
2023/08/21 15:36:15;;;;;;;2.67;0.82;;;;;;;28.63;37.44;100978.19;10127487;29;20060;-76
2023/08/21 15:41:18;;;;;;;3.72;0.82;;;;;;;30.45;35.69;100974.22;10133280;29;20401;-76
2023/08/21 15:46:21;;;;;;;2.28;1.08;;;;;;;31.66;33.27;100965.03;10130947;29;20063;-76
2023/08/21 15:51:25;;;;;;;1.75;1.05;;;;;;;31.12;33.06;100957.91;10133349;28;20405;-77
2023/08/21 15:56:28;;;;;;;3.03;0.68;;;;;;;30.24;35.14;100964.59;10139523;28;20060;-76
2023/08/21 16:01:32;;;;;;;2.60;1.00;;;;;;;29.34;37.01;100954.53;10136873;28;20056;-78
2023/08/21 16:06:36;;;;;;;2.25;0.90;;;;;;;29.69;36.91;100948.28;10132056;29;20056;-76
2023/08/21 16:11:39;;;;;;;2.92;0.75;;;;;;;29.68;36.35;100952.97;10125438;29;20086;-76
2023/08/21 16:16:42;;;;;;;5.43;1.00;;;;;;;28.81;38.33;100949.72;10115230;28;20419;-75
2023/08/21 16:21:49;;;;;;;2.13;0.95;;;;;;;27.95;39.65;100946.75;10124579;28;20131;-75
2023/08/21 16:26:52;;;;;;;3.30;1.20;;;;;;;27.42;40.68;100954.59;10143760;28;20504;-77
2023/08/21 16:31:55;;;;;;;2.00;0.90;;;;;;;26.99;41.98;100952.47;10161301;29;20040;-77
2023/08/21 16:37:00;;;;;;;2.13;1.20;;;;;;;26.96;42.22;100951.03;10159596;29;20052;-77
2023/08/21 16:42:03;;;;;;;3.13;0.88;;;;;;;27.45;41.06;100943.13;10166065;29;20419;-76
2023/08/21 16:47:07;;;;;;;3.67;1.15;;;;;;;27.83;41.54;100929.22;10168563;29;20071;-76
2023/08/21 16:52:13;;;;;;;3.15;1.13;;;;;;;27.55;41.51;100930.53;10172541;29;20103;-76
2023/08/21 16:57:16;;;;;;;3.97;1.10;;;;;;;27.05;41.89;100933.16;10171214;29;20156;-76
2023/08/21 17:02:20;;;;;;;4.18;0.90;;;;;;;26.70;42.69;100919.72;10171202;29;20054;-77
2023/08/21 17:07:25;;;;;;;3.13;0.90;;;;;;;26.52;42.89;100928.72;10167569;29;20037;-77
2023/08/21 17:12:27;;;;;;;3.10;0.80;;;;;;;26.48;42.93;100927.44;10171692;29;20071;-77
2023/08/21 17:17:31;;;;;;;3.08;1.40;;;;;;;26.41;43.70;100920.25;10178530;29;20048;-77
2023/08/21 17:22:35;;;;;;;8.93;1.65;;;;;;;26.28;43.51;100929.41;10160780;29;21271;-76
2023/08/21 17:27:38;;;;;;;4.13;1.00;;;;;;;26.23;43.73;100919.03;10132635;29;20078;-77
2023/08/21 17:32:41;;;;;;;3.38;1.40;;;;;;;26.08;45.12;100915.63;10128094;29;20056;-78
2023/08/21 17:37:47;;;;;;;6.20;2.30;;;;;;;25.99;44.74;100914.19;10135499;28;20443;-76
2023/08/21 17:42:50;;;;;;;3.70;1.23;;;;;;;25.91;44.95;100912.47;10135599;29;20048;-77
2023/08/21 17:47:53;;;;;;;4.53;1.63;;;;;;;25.67;45.48;100911.25;10136299;28;20048;-75
2023/08/21 17:52:58;;;;;;;3.47;1.00;;;;;;;25.53;46.08;100910.34;10142157;29;21250;-77
2023/08/21 17:58:02;;;;;;;3.28;1.02;;;;;;;25.53;45.91;100920.50;10134925;28;20052;-78
2023/08/21 18:03:05;;;;;;;2.40;1.10;;;;;;;25.55;45.07;100913.72;10138279;28;20056;-76
2023/08/21 18:08:09;;;;;;;1.27;0.85;;;;;;;25.47;45.51;100913.09;10147748;29;20134;-77
2023/08/21 18:13:12;;;;;;;4.93;1.50;;;;;;;25.28;46.50;100906.50;10136899;29;20048;-75
2023/08/21 18:18:15;;;;;;;2.17;1.23;;;;;;;25.08;47.04;100912.81;10137588;29;20566;-76
2023/08/21 18:23:22;;;;;;;2.40;1.30;;;;;;;24.70;47.44;100918.78;10134182;28;20093;-76
2023/08/21 18:28:25;;;;;;;4.00;1.30;;;;;;;24.52;48.82;100918.50;10139901;28;20512;-76
2023/08/21 18:33:28;;;;;;;2.42;1.23;;;;;;;24.43;48.71;100904.09;10134525;29;20052;-77
2023/08/21 18:38:33;;;;;;;3.58;1.42;;;;;;;24.37;48.99;100920.50;10138462;29;20059;-77
2023/08/21 18:43:36;;;;;;;4.47;1.15;;;;;;;24.25;48.34;100915.59;10131791;29;20102;-77
2023/08/21 18:48:38;;;;;;;4.65;1.25;;;;;;;24.08;48.85;100926.03;10136865;29;20052;-78
2023/08/21 18:53:43;;;;;;;2.67;1.00;;;;;;;24.02;48.86;100917.75;10134676;28;20070;-77
2023/08/21 18:58:46;;;;;;;3.35;1.20;;;;;;;24.06;49.33;100922.63;10136398;28;20055;-76
2023/08/21 19:03:49;;;;;;;4.25;1.63;;;;;;;24.01;50.56;100930.63;10130406;29;20055;-76
2023/08/21 19:08:54;;;;;;;2.67;1.80;;;;;;;23.85;50.65;100930.91;10133133;29;20056;-78
2023/08/21 19:13:57;;;;;;;3.10;1.60;;;;;;;23.64;50.65;100932.63;10131639;29;20059;-76
2023/08/21 19:19:00;;;;;;;3.65;1.30;;;;;;;23.57;50.75;100925.38;10135425;28;20062;-76
2023/08/21 19:24:04;;;;;;;3.42;1.63;;;;;;;23.60;51.08;100923.06;10133949;28;20067;-76
2023/08/21 19:29:08;;;;;;;4.00;1.70;;;;;;;23.56;51.95;100930.03;10123868;29;20776;-77
2023/08/21 19:34:10;;;;;;;4.20;1.65;;;;;;;23.36;52.72;100946.25;10124831;29;20106;-74
2023/08/21 19:39:15;;;;;;;3.15;1.48;;;;;;;23.00;51.83;100940.78;10131869;29;20052;-74
2023/08/21 19:44:17;;;;;;;3.35;1.30;;;;;;;23.08;51.84;100945.28;10132402;28;20606;-74
2023/08/21 19:49:20;;;;;;;3.03;1.27;;;;;;;23.07;52.65;100940.88;10130951;28;20106;-73
2023/08/21 19:54:25;;;;;;;4.75;1.98;;;;;;;23.07;52.50;100938.97;10127157;29;20055;-73
2023/08/21 19:59:27;;;;;;;3.97;1.77;;;;;;;22.92;52.42;100932.66;10124508;29;21166;-73
2023/08/21 20:04:30;;;;;;;3.78;1.85;;;;;;;22.94;52.81;100925.13;10124250;29;20052;-75
2023/08/21 20:09:35;;;;;;;3.85;1.83;;;;;;;22.91;53.24;100930.97;10118616;29;20055;-74
2023/08/21 20:14:37;;;;;;;7.45;1.75;;;;;;;22.92;53.23;100946.38;10122358;28;20644;-75
2023/08/21 20:19:40;;;;;;;4.00;1.80;;;;;;;22.93;54.08;100929.75;10127465;28;20079;-75
2023/08/21 20:24:44;;;;;;;4.03;1.80;;;;;;;22.60;53.27;100940.28;10120925;29;20542;-75
2023/08/21 20:29:47;;;;;;;4.80;1.70;;;;;;;22.51;53.76;100935.94;10127186;29;20052;-75
2023/08/21 20:34:52;;;;;;;6.45;1.75;;;;;;;22.43;54.60;100938.75;10124928;29;20103;-75
2023/08/21 20:39:56;;;;;;;5.75;1.50;;;;;;;21.94;55.13;100947.47;10122449;29;20197;-76
2023/08/21 20:45:01;;;;;;;6.75;1.40;;;;;;;21.75;56.10;100946.09;10125461;28;20048;-75
2023/08/21 20:50:05;;;;;;;3.50;2.00;;;;;;;21.75;56.77;100962.50;10125788;29;20064;-75
2023/08/21 20:55:09;;;;;;;6.60;1.55;;;;;;;22.03;56.41;100943.63;10132054;29;20048;-75
2023/08/21 21:00:12;;;;;;;5.15;2.28;;;;;;;22.12;55.60;100953.44;10125389;29;20063;-75
2023/08/21 21:05:15;;;;;;;6.78;2.50;;;;;;;21.84;55.83;100947.75;10126434;29;20051;-75
2023/08/21 21:10:20;;;;;;;5.57;1.92;;;;;;;21.80;56.21;100944.53;10134165;29;20074;-75
2023/08/21 21:15:23;;;;;;;4.53;1.73;;;;;;;21.94;56.32;100933.78;10144498;28;20116;-75
2023/08/21 21:20:26;;;;;;;4.00;1.80;;;;;;;21.89;56.60;100928.91;10138452;28;20044;-75
2023/08/21 21:25:30;;;;;;;8.15;2.20;;;;;;;21.26;57.28;100939.13;10129840;29;20079;-74
2023/08/21 21:30:33;;;;;;;4.60;1.98;;;;;;;21.29;58.16;100936.03;10133206;29;20052;-74
2023/08/21 21:35:36;;;;;;;6.82;2.30;;;;;;;21.34;57.48;100941.81;10131418;28;20051;-75
2023/08/21 21:40:42;;;;;;;14.02;2.83;;;;;;;21.42;57.48;100932.69;10139894;28;20570;-75
2023/08/21 21:45:45;;;;;;;3.50;1.98;;;;;;;21.05;58.30;100925.25;10131001;28;20055;-74
2023/08/21 21:50:48;;;;;;;5.13;2.08;;;;;;;21.09;58.50;100918.38;10138598;28;20063;-75
2023/08/21 21:55:52;;;;;;;6.22;2.13;;;;;;;21.19;58.20;100922.59;10149342;28;20125;-74
2023/08/21 22:00:55;;;;;;;6.95;2.33;;;;;;;20.96;58.62;100935.34;10131784;29;20677;-75
2023/08/21 22:05:58;;;;;;;6.35;2.35;;;;;;;20.74;59.61;100918.75;10136543;28;20085;-75
2023/08/21 22:11:05;;;;;;;6.88;2.25;;;;;;;20.82;59.95;100914.28;10147452;28;20418;-75
2023/08/21 22:16:08;;;;;;;4.95;2.35;;;;;;;20.91;59.80;100907.72;10136248;28;20048;-75
2023/08/21 22:21:11;;;;;;;6.50;2.97;;;;;;;20.90;59.82;100904.16;10125981;29;20055;-74
2023/08/21 22:26:16;;;;;;;9.02;3.45;;;;;;;20.86;59.82;100899.22;10130644;29;20055;-78
2023/08/21 22:31:18;;;;;;;8.77;2.70;;;;;;;20.85;60.00;100892.06;10136875;29;20059;-75
2023/08/21 22:36:33;;;;;;;5.13;2.55;;;;;;;20.75;61.00;100887.66;10139427;28;20052;-75
2023/08/21 22:41:37;;;;;;;11.48;2.83;;;;;;;20.57;61.48;100889.84;10145458;28;20078;-76
2023/08/21 22:46:41;;;;;;;8.32;2.38;;;;;;;20.50;62.10;100892.41;10125264;28;20071;-76
2023/08/21 22:51:44;;;;;;;4.80;2.28;;;;;;;20.52;61.96;100897.69;10126647;29;20055;-74
2023/08/21 22:56:48;;;;;;;6.07;2.30;;;;;;;20.56;62.21;100893.56;10139948;29;20101;-76
2023/08/21 23:01:51;;;;;;;6.20;2.83;;;;;;;20.54;61.92;100891.03;10133862;28;20510;-75
2023/08/21 23:06:54;;;;;;;4.57;2.10;;;;;;;20.29;62.91;100894.84;10128308;28;20085;-74
2023/08/21 23:11:58;;;;;;;5.82;2.10;;;;;;;20.21;63.30;100897.59;10127708;29;20063;-75
2023/08/21 23:17:04;;;;;;;8.85;2.40;;;;;;;19.63;64.25;100907.75;10127856;29;20051;-75